Time;durP1;ratioP1;P1;durP2;ratioP2;P2;SDS_P1;SDS_P2;PMS_P1;PMS_P2;Temp;Humidity;BMP_temperature;BMP_pressure;BME280_temperature;BME280_humidity;BME280_pressure;Samples;Min_cycle;Max_cycle;Signal;HPM_P1;HPM_P2
2023/05/02 00:01:22;;;;;;;4.07;2.30;;;;;;;16.25;48.41;99341.47;5016074;28;20042;-72
2023/05/02 00:03:48;;;;;;;3.60;1.90;;;;;;;16.26;48.32;99341.31;5017948;28;20410;-72
2023/05/02 00:06:13;;;;;;;3.45;1.88;;;;;;;16.21;48.49;99345.34;5018162;28;20045;-72
2023/05/02 00:08:39;;;;;;;3.17;1.77;;;;;;;16.20;48.39;99344.50;5001388;28;20552;-72
2023/05/02 00:11:04;;;;;;;4.38;1.83;;;;;;;16.17;48.49;99350.03;5017881;28;20042;-72
2023/05/02 00:13:30;;;;;;;5.97;1.88;;;;;;;16.13;48.55;99334.66;5017736;28;20038;-72
2023/05/02 00:15:55;;;;;;;3.63;1.98;;;;;;;16.15;48.58;99348.53;5017703;28;20508;-72
2023/05/02 00:18:22;;;;;;;4.68;1.88;;;;;;;16.12;48.56;99354.91;5001443;28;20049;-72
2023/05/02 00:20:49;;;;;;;3.40;1.77;;;;;;;16.08;48.42;99353.50;5032165;28;20062;-72
2023/05/02 00:23:14;;;;;;;5.82;1.70;;;;;;;16.04;48.34;99347.69;4981761;28;20501;-72
2023/05/02 00:25:44;;;;;;;8.85;1.80;;;;;;;16.04;48.53;99352.13;4994308;28;20113;-72
2023/05/02 00:28:10;;;;;;;4.10;1.88;;;;;;;16.05;48.53;99361.69;4998006;28;20490;-72
2023/05/02 00:30:36;;;;;;;3.22;1.75;;;;;;;16.00;48.49;99359.47;4997867;28;20052;-73
2023/05/02 00:33:01;;;;;;;4.28;1.80;;;;;;;15.95;48.47;99355.56;4981944;28;20088;-72
2023/05/02 00:35:27;;;;;;;4.30;1.65;;;;;;;15.93;48.55;99362.78;4997882;28;20045;-72
2023/05/02 00:37:52;;;;;;;5.00;1.63;;;;;;;15.96;48.57;99365.16;4981829;28;20050;-72
2023/05/02 00:40:18;;;;;;;5.38;1.60;;;;;;;15.92;48.64;99372.47;5015412;28;20034;-72
2023/05/02 00:42:43;;;;;;;3.20;1.70;;;;;;;15.89;48.56;99367.47;4981488;28;20041;-72
2023/05/02 00:45:09;;;;;;;4.57;1.88;;;;;;;15.86;48.61;99362.47;5015171;28;20073;-72
2023/05/02 00:47:35;;;;;;;3.80;1.83;;;;;;;15.82;48.71;99369.81;4996606;28;20034;-72
2023/05/02 00:50:00;;;;;;;3.88;2.10;;;;;;;15.80;48.62;99360.41;4981571;28;20038;-72
2023/05/02 00:52:26;;;;;;;2.50;1.70;;;;;;;15.80;48.64;99365.69;4965350;28;20038;-72
2023/05/02 00:54:51;;;;;;;4.35;1.80;;;;;;;15.73;48.62;99349.53;4980712;28;20503;-72
2023/05/02 00:57:17;;;;;;;3.22;1.70;;;;;;;15.73;48.73;99357.44;4981291;28;20038;-72
2023/05/02 00:59:43;;;;;;;2.15;1.50;;;;;;;15.72;48.49;99358.41;4981286;28;20033;-72
2023/05/02 01:02:37;;;;;;;4.25;1.60;;;;;;;15.70;48.55;99360.34;5014755;28;20125;-72
2023/05/02 01:05:25;;;;;;;2.53;1.60;;;;;;;15.65;48.55;99367.81;4997510;28;20030;-72
2023/05/02 01:08:07;;;;;;;3.08;1.70;;;;;;;15.63;48.60;99365.31;4997435;28;20038;-72
2023/05/02 01:10:46;;;;;;;5.47;2.00;;;;;;;15.62;48.45;99368.06;4997660;28;20124;-72
2023/05/02 01:13:13;;;;;;;;;;;;;;;15.60;48.60;99364.75;5015306;28;20404;-72
2023/05/02 01:15:39;;;;;;;2.35;1.63;;;;;;;15.52;48.70;99354.88;4996890;28;19971;-72
2023/05/02 01:18:05;;;;;;;4.10;1.70;;;;;;;15.54;48.47;99359.06;4980933;28;20390;-73
2023/05/02 01:20:32;;;;;;;2.95;1.58;;;;;;;15.52;48.48;99358.34;4980458;28;20040;-72
2023/05/02 01:22:59;;;;;;;3.65;1.70;;;;;;;15.49;48.57;99363.88;4980847;28;20034;-72
2023/05/02 01:25:32;;;;;;;5.10;1.60;;;;;;;15.46;48.54;99369.41;4996823;28;20058;-72
2023/05/02 01:28:05;;;;;;;4.32;1.40;;;;;;;15.42;48.52;99362.75;4980570;28;20101;-72
2023/05/02 01:30:32;;;;;;;4.28;1.90;;;;;;;15.37;48.58;99350.00;4996804;28;20174;-72
2023/05/02 01:32:57;;;;;;;3.10;1.60;;;;;;;15.42;48.55;99359.28;4980626;28;20525;-72
2023/05/02 01:35:23;;;;;;;4.85;1.65;;;;;;;15.41;48.45;99371.59;4996808;28;20077;-72
2023/05/02 01:37:48;;;;;;;3.50;1.50;;;;;;;15.38;48.37;99371.88;4964238;28;20590;-72
2023/05/02 01:40:19;;;;;;;3.75;1.38;;;;;;;15.35;48.30;99365.09;4964330;28;20484;-72
2023/05/02 01:42:46;;;;;;;2.92;1.50;;;;;;;15.30;48.56;99363.81;4980941;28;20493;-72
2023/05/02 01:45:11;;;;;;;4.57;1.90;;;;;;;15.30;48.36;99374.31;4996421;28;20425;-72
2023/05/02 01:47:37;;;;;;;4.47;1.75;;;;;;;15.28;48.45;99376.28;5014320;28;20045;-72
2023/05/02 01:50:02;;;;;;;5.78;1.50;;;;;;;15.26;48.40;99365.88;4980101;28;20038;-72
2023/05/02 01:52:29;;;;;;;5.93;1.52;;;;;;;15.25;48.55;99373.91;4963997;28;20069;-72
2023/05/02 01:54:54;;;;;;;2.92;1.40;;;;;;;15.17;48.60;99356.16;4980609;28;20073;-72
2023/05/02 01:57:20;;;;;;;3.13;1.50;;;;;;;15.21;48.54;99365.41;4980467;28;20073;-72
2023/05/02 01:59:45;;;;;;;3.17;1.55;;;;;;;15.17;48.47;99362.22;4980385;28;20046;-72
2023/05/02 02:02:11;;;;;;;3.35;1.40;;;;;;;15.16;48.54;99367.63;4980120;28;20394;-72
2023/05/02 02:04:36;;;;;;;2.85;1.70;;;;;;;15.14;48.39;99364.28;4980228;28;20049;-72
2023/05/02 02:07:05;;;;;;;3.95;1.38;;;;;;;15.11;48.31;99367.19;4995890;28;20580;-72
2023/05/02 02:09:30;;;;;;;3.75;1.58;;;;;;;15.08;48.51;99362.19;4980058;28;20093;-72
2023/05/02 02:12:06;;;;;;;3.53;1.65;;;;;;;15.05;48.18;99373.78;5013352;28;20038;-72
2023/05/02 02:14:41;;;;;;;4.25;1.30;;;;;;;14.99;48.41;99363.78;4980385;28;20038;-73
2023/05/02 02:17:15;;;;;;;2.28;1.30;;;;;;;14.97;48.49;99369.16;4979548;28;20413;-72
2023/05/02 02:19:41;;;;;;;3.90;1.30;;;;;;;14.97;48.48;99377.06;4980327;28;20124;-72
2023/05/02 02:22:07;;;;;;;3.00;1.30;;;;;;;14.96;48.42;99379.81;4979739;28;20565;-72
2023/05/02 02:24:33;;;;;;;5.90;1.58;;;;;;;14.93;48.37;99380.91;4979157;28;20042;-72
2023/05/02 02:26:58;;;;;;;4.03;1.48;;;;;;;14.91;48.45;99376.75;4979743;28;20576;-72
2023/05/02 02:29:24;;;;;;;4.03;1.30;;;;;;;14.85;48.54;99380.75;5013176;28;20037;-72
2023/05/02 02:31:49;;;;;;;7.38;1.42;;;;;;;14.86;48.65;99378.94;4963430;28;20042;-72
2023/05/02 02:34:15;;;;;;;5.82;1.70;;;;;;;14.84;48.53;99382.50;4995857;28;20042;-73
2023/05/02 02:36:54;;;;;;;3.15;1.40;;;;;;;14.82;48.50;99379.19;4979268;28;20044;-72
2023/05/02 02:39:19;;;;;;;4.22;1.45;;;;;;;14.80;48.42;99383.75;4995603;28;20048;-72
2023/05/02 02:42:03;;;;;;;3.03;1.33;;;;;;;14.78;48.57;99383.03;4995629;28;20034;-72
2023/05/02 02:44:40;;;;;;;4.90;1.38;;;;;;;14.75;48.54;99383.28;5012902;28;20040;-72
2023/05/02 02:47:10;;;;;;;3.03;1.40;;;;;;;14.75;48.46;99382.47;4995507;28;20551;-72
2023/05/02 02:49:57;;;;;;;2.78;1.20;;;;;;;14.73;48.39;99387.84;4995239;28;20536;-72
2023/05/02 02:53:15;;;;;;;5.25;1.55;;;;;;;14.72;48.45;99385.34;4995787;28;20033;-73
2023/05/02 02:55:40;;;;;;;;;;;;;;;14.71;48.44;99388.94;4919664;29;20547;-72
2023/05/02 02:58:18;;;;;;;2.33;1.23;;;;;;;14.67;48.48;99384.91;4933084;29;20003;-72
2023/05/02 03:00:43;;;;;;;2.33;1.30;;;;;;;14.65;48.27;99383.22;4917149;29;20061;-72
2023/05/02 03:03:09;;;;;;;5.60;1.60;;;;;;;14.63;48.49;99387.78;4901446;29;20618;-72
2023/05/02 03:05:34;;;;;;;2.85;1.58;;;;;;;14.65;48.44;99390.28;4901400;29;20487;-72
2023/05/02 03:08:00;;;;;;;2.97;1.45;;;;;;;14.61;48.36;99387.06;4917252;29;20051;-72
2023/05/02 03:10:25;;;;;;;8.15;1.48;;;;;;;14.64;48.50;99397.34;4917183;29;20039;-72
2023/05/02 03:12:54;;;;;;;2.72;1.30;;;;;;;14.65;48.09;99396.34;4885955;29;20553;-71
2023/05/02 03:15:38;;;;;;;;;;;;;;;14.67;48.17;99395.41;4933486;29;20150;-71
2023/05/02 03:18:03;;;;;;;3.72;1.60;;;;;;;14.65;48.24;99398.16;4932780;29;19910;-71
2023/05/02 03:20:29;;;;;;;2.45;1.50;;;;;;;14.68;48.21;99394.44;4932910;29;20043;-73
2023/05/02 03:22:54;;;;;;;3.60;1.48;;;;;;;14.71;47.98;99404.72;4901589;29;20446;-72
2023/05/02 03:25:19;;;;;;;3.40;1.65;;;;;;;14.74;48.04;99391.31;4916417;29;20064;-73
2023/05/02 03:27:45;;;;;;;2.95;1.52;;;;;;;14.79;47.90;99399.66;4917092;29;20051;-77
2023/05/02 03:30:11;;;;;;;3.08;1.48;;;;;;;14.83;47.77;99404.53;4932743;29;20036;-79
2023/05/02 03:32:36;;;;;;;2.63;1.30;;;;;;;14.90;49.40;99410.09;4992437;28;20038;-83
2023/05/02 03:35:02;;;;;;;4.57;2.10;;;;;;;15.32;65.73;99420.59;4962844;28;20042;-74
2023/05/02 03:37:27;;;;;;;7.55;1.80;;;;;;;15.89;61.18;99417.50;5016188;28;20042;-80
2023/05/02 03:39:52;;;;;;;8.40;1.88;;;;;;;16.75;55.48;99412.47;4966025;28;20092;-77
2023/05/02 03:42:18;;;;;;;10.60;1.85;;;;;;;17.47;52.46;99415.53;5016041;28;20038;-74
2023/05/02 03:44:43;;;;;;;4.30;1.73;;;;;;;18.13;49.97;99403.09;5015697;28;20053;-74
2023/05/02 03:47:09;;;;;;;6.47;1.60;;;;;;;18.81;47.66;99412.31;5015700;28;20053;-74
2023/05/02 03:49:35;;;;;;;11.57;1.52;;;;;;;19.60;45.67;99421.09;4982183;28;20397;-74
2023/05/02 03:52:01;;;;;;;3.60;1.25;;;;;;;20.30;43.34;99433.25;5016368;28;20056;-76
2023/05/02 03:54:26;;;;;;;12.70;1.63;;;;;;;21.05;41.11;99431.53;5016028;28;20030;-74
2023/05/02 03:56:55;;;;;;;5.53;1.60;;;;;;;21.72;38.50;99435.69;5015760;28;20042;-78
2023/05/02 03:59:20;;;;;;;;;;;;;;;22.58;37.79;99436.56;5016232;28;20034;-75
2023/05/02 04:01:51;;;;;;;2.63;1.20;;;;;;;23.21;35.78;99434.53;5015897;28;19909;-72
2023/05/02 04:04:16;;;;;;;4.18;1.30;;;;;;;23.87;34.00;99436.50;4998954;28;20045;-72
2023/05/02 04:06:42;;;;;;;9.70;1.50;;;;;;;24.59;33.16;99437.53;5015774;28;20394;-74
2023/05/02 04:09:07;;;;;;;6.03;1.30;;;;;;;25.29;31.88;99445.69;4997966;28;20046;-72
2023/05/02 04:11:33;;;;;;;3.50;1.20;;;;;;;25.76;30.13;99430.75;5015759;28;20041;-71
2023/05/02 04:13:58;;;;;;;3.63;1.40;;;;;;;25.48;30.39;99443.34;4998185;28;20382;-72
2023/05/02 04:16:24;;;;;;;4.18;1.20;;;;;;;25.16;30.04;99438.41;4997542;28;20046;-72
2023/05/02 04:18:50;;;;;;;3.97;1.20;;;;;;;26.12;28.37;99442.22;4997813;28;20073;-72
2023/05/02 04:21:15;;;;;;;4.72;1.27;;;;;;;26.99;27.15;99437.00;5015639;28;20042;-72
2023/05/02 04:23:41;;;;;;;6.82;1.40;;;;;;;27.84;25.69;99439.72;5013376;28;20097;-72
2023/05/02 04:26:06;;;;;;;5.00;1.10;;;;;;;28.64;24.39;99438.53;5015109;28;20046;-72
2023/05/02 04:28:32;;;;;;;4.28;1.10;;;;;;;29.34;23.74;99442.88;4981276;28;20057;-72
2023/05/02 04:30:57;;;;;;;4.45;1.10;;;;;;;29.98;22.21;99440.72;5015144;28;20522;-72
2023/05/02 04:33:23;;;;;;;2.88;1.05;;;;;;;30.61;21.96;99441.31;5015430;28;20042;-72
2023/05/02 04:35:49;;;;;;;1.48;0.82;;;;;;;31.29;21.03;99442.66;5015056;28;20042;-72
2023/05/02 04:38:14;;;;;;;5.68;1.30;;;;;;;31.95;20.12;99439.72;4997001;28;20129;-73
2023/05/02 04:40:40;;;;;;;2.22;1.20;;;;;;;32.60;19.25;99441.19;5015070;28;20100;-72
2023/05/02 04:43:06;;;;;;;2.22;1.15;;;;;;;33.27;18.41;99438.75;4997508;28;20125;-73
2023/05/02 04:45:33;;;;;;;2.78;1.20;;;;;;;33.89;17.89;99432.25;4980548;28;20587;-73
2023/05/02 04:47:58;;;;;;;5.20;1.40;;;;;;;34.69;17.37;99439.81;4997158;28;20034;-73
2023/05/02 04:50:26;;;;;;;5.45;1.50;;;;;;;35.37;16.72;99425.66;5014848;28;20038;-73
2023/05/02 04:52:52;;;;;;;1.88;1.00;;;;;;;36.10;15.92;99433.78;5014516;28;20038;-73
2023/05/02 04:55:17;;;;;;;3.03;1.27;;;;;;;36.76;15.47;99441.22;4996753;28;20144;-70
2023/05/02 04:57:43;;;;;;;1.65;0.80;;;;;;;37.40;15.32;99438.13;5014880;28;20519;-73
2023/05/02 05:00:09;;;;;;;5.13;1.20;;;;;;;37.91;14.53;99439.84;5014498;28;20038;-73
2023/05/02 05:02:34;;;;;;;6.55;1.20;;;;;;;38.44;14.15;99444.69;4983137;28;20050;-73
2023/05/02 05:05:01;;;;;;;4.60;1.20;;;;;;;38.89;13.66;99439.97;5034345;28;20044;-73
2023/05/02 05:07:26;;;;;;;7.00;1.38;;;;;;;39.31;13.44;99432.16;4980450;28;20413;-72
2023/05/02 05:09:52;;;;;;;12.90;1.30;;;;;;;39.70;13.02;99436.63;4996978;28;20034;-73
2023/05/02 05:12:18;;;;;;;3.45;1.10;;;;;;;40.05;12.87;99432.59;4996395;28;20069;-72
2023/05/02 05:14:44;;;;;;;4.90;1.42;;;;;;;40.38;12.46;99431.84;4996943;28;20054;-72
2023/05/02 05:17:09;;;;;;;4.43;1.75;;;;;;;40.64;12.26;99438.53;5013134;28;20494;-73
2023/05/02 05:19:36;;;;;;;3.85;1.30;;;;;;;40.89;12.11;99444.69;4996783;28;20073;-73
2023/05/02 05:22:02;;;;;;;7.32;1.02;;;;;;;41.16;11.85;99443.09;4994911;28;20516;-72
2023/05/02 05:24:27;;;;;;;4.00;1.00;;;;;;;41.32;11.64;99441.69;4980551;28;20053;-74
2023/05/02 05:26:53;;;;;;;5.20;1.20;;;;;;;41.49;11.47;99445.75;5012732;28;20433;-73
2023/05/02 05:29:18;;;;;;;8.30;1.10;;;;;;;41.68;11.27;99440.94;4980568;28;20045;-77
2023/05/02 05:31:44;;;;;;;7.28;1.30;;;;;;;41.85;11.32;99448.56;4995849;28;20052;-78
2023/05/02 05:34:11;;;;;;;25.15;1.33;;;;;;;41.58;15.64;99452.13;4992815;28;20037;-85
2023/05/02 05:36:47;;;;;;;13.35;1.48;;;;;;;40.84;12.91;99448.28;5101871;23;20057;-85
2023/05/02 05:39:15;;;;;;;11.73;1.63;;;;;;;40.19;11.28;99445.53;5161798;23;20050;-87
2023/05/02 05:44:14;;;;;;;14.30;1.88;;;;;;;39.30;11.49;99458.66;5481672;22;20057;-85
2023/05/02 05:46:40;;;;;;;12.83;1.67;;;;;;;38.78;13.28;99457.50;5018815;28;20048;-86
2023/05/02 05:49:30;;;;;;;15.77;2.00;;;;;;;38.46;13.58;99462.41;5029683;28;20268;-85
2023/05/02 05:52:14;;;;;;;12.48;1.48;;;;;;;38.16;13.19;99466.97;5013233;28;20100;-86
2023/05/02 05:54:57;;;;;;;22.92;1.65;;;;;;;38.05;11.58;99459.09;5014339;28;20045;-82
2023/05/02 05:57:25;;;;;;;7.65;1.38;;;;;;;37.83;11.03;99454.88;5037392;28;20040;-81
2023/05/02 05:59:53;;;;;;;10.90;1.50;;;;;;;37.58;10.83;99444.88;5017202;28;20033;-82
2023/05/02 06:02:23;;;;;;;6.00;1.50;;;;;;;37.46;10.62;99459.63;5003416;28;20046;-82
2023/05/02 06:04:49;;;;;;;5.10;1.20;;;;;;;37.22;10.53;99455.88;4984701;28;20483;-81
2023/05/02 06:07:15;;;;;;;7.15;1.35;;;;;;;37.20;11.45;99460.75;5034335;28;20113;-80
2023/05/02 06:09:40;;;;;;;7.60;1.60;;;;;;;37.03;11.90;99461.06;4984597;28;20088;-82
2023/05/02 06:12:06;;;;;;;13.80;1.40;;;;;;;36.92;12.21;99462.97;5022275;28;20045;-86
2023/05/02 06:14:33;;;;;;;7.97;1.55;;;;;;;36.85;11.02;99471.41;4999897;28;20077;-76
2023/05/02 06:17:00;;;;;;;4.95;1.42;;;;;;;36.54;11.41;99459.69;4998809;28;20044;-79
2023/05/02 06:19:25;;;;;;;8.35;1.60;;;;;;;36.27;13.30;99463.47;5002604;28;20096;-82
2023/05/02 06:21:51;;;;;;;7.78;1.20;;;;;;;35.94;12.25;99462.81;5017748;28;20042;-79
2023/05/02 06:24:16;;;;;;;5.80;1.30;;;;;;;35.77;13.59;99463.06;4984210;28;20479;-83
2023/05/02 06:26:42;;;;;;;6.57;1.60;;;;;;;35.76;11.16;99466.03;5001907;28;20053;-78
2023/05/02 06:29:07;;;;;;;6.22;1.80;;;;;;;35.65;10.94;99459.72;5015871;28;20029;-81
2023/05/02 06:31:33;;;;;;;5.28;2.28;;;;;;;35.49;10.94;99467.78;5001188;28;20041;-80
2023/05/02 06:33:58;;;;;;;7.80;1.50;;;;;;;35.19;11.25;99462.13;5001334;28;20048;-81
2023/05/02 06:36:26;;;;;;;13.55;2.63;;;;;;;35.06;11.57;99461.53;5000310;28;20077;-80
2023/05/02 06:38:51;;;;;;;7.85;2.25;;;;;;;34.87;12.03;99460.28;4998986;28;20037;-82
2023/05/02 06:41:17;;;;;;;6.55;1.40;;;;;;;34.49;12.79;99460.25;5002677;28;20044;-80
2023/05/02 06:43:44;;;;;;;14.03;1.63;;;;;;;34.34;13.00;99462.81;5001960;28;20057;-81
2023/05/02 06:46:10;;;;;;;7.68;1.38;;;;;;;34.00;13.37;99462.94;5017556;28;20057;-78
2023/05/02 06:48:35;;;;;;;13.35;1.45;;;;;;;34.00;12.64;99461.09;5033889;28;20432;-79
2023/05/02 06:51:03;;;;;;;4.28;1.50;;;;;;;33.93;13.05;99463.16;4984117;28;20424;-77
2023/05/02 06:53:29;;;;;;;3.13;1.80;;;;;;;34.02;14.78;99455.41;5000720;28;20148;-77
2023/05/02 06:55:55;;;;;;;4.35;1.23;;;;;;;33.95;13.84;99460.19;4999764;28;20076;-78
2023/05/02 06:58:20;;;;;;;5.60;1.50;;;;;;;34.03;13.14;99467.88;4983208;28;20037;-78
2023/05/02 07:00:47;;;;;;;5.53;1.50;;;;;;;33.99;13.79;99472.97;4982497;28;20124;-79
2023/05/02 07:03:14;;;;;;;6.85;1.45;;;;;;;33.85;12.45;99459.00;5014913;28;20048;-79
2023/05/02 07:05:41;;;;;;;;;;;;;;;33.24;15.70;99469.84;5019224;28;20037;-80
2023/05/02 07:08:07;;;;;;;5.80;1.40;;;;;;;33.20;15.67;99457.88;5004761;28;19915;-80
2023/05/02 07:10:33;;;;;;;9.82;1.42;;;;;;;33.25;14.63;99476.06;5016476;28;20099;-82
2023/05/02 07:12:59;;;;;;;12.60;1.55;;;;;;;33.24;13.12;99469.84;5035208;28;20509;-85
2023/05/02 07:15:25;;;;;;;6.78;1.60;;;;;;;33.27;13.60;99476.63;5017457;28;20092;-76
2023/05/02 07:17:51;;;;;;;8.48;1.80;;;;;;;33.25;14.21;99465.22;4982937;28;20065;-77
2023/05/02 07:20:16;;;;;;;9.40;1.50;;;;;;;33.11;14.58;99473.66;4983544;28;20070;-78
2023/05/02 07:22:43;;;;;;;6.43;1.80;;;;;;;32.58;14.50;99467.66;4983571;28;20038;-79
2023/05/02 07:25:11;;;;;;;;;;;;;;;32.28;16.10;99470.63;4994164;28;20067;-80
2023/05/02 07:27:36;;;;;;;5.80;1.63;;;;;;;32.35;14.97;99471.28;5033465;28;20437;-78
2023/05/02 07:30:02;;;;;;;8.18;1.83;;;;;;;32.58;15.71;99467.66;5000583;28;20135;-82
2023/05/02 07:32:28;;;;;;;14.82;1.98;;;;;;;32.87;16.24;99467.59;5016669;28;20378;-83
2023/05/02 07:34:56;;;;;;;9.77;1.60;;;;;;;33.58;16.22;99477.88;4986382;28;20041;-84
2023/05/02 07:37:26;;;;;;;7.13;1.70;;;;;;;34.23;15.84;99483.56;5040024;28;20053;-84
2023/05/02 07:39:53;;;;;;;11.02;1.60;;;;;;;34.73;15.64;99479.69;5009609;28;20036;-86
2023/05/02 07:42:18;;;;;;;7.80;1.35;;;;;;;35.20;14.41;99480.06;5003313;28;20439;-82
2023/05/02 07:44:47;;;;;;;4.88;1.17;;;;;;;35.64;14.31;99482.50;5049534;23;20528;-86
2023/05/02 07:47:13;;;;;;;6.13;1.20;;;;;;;35.92;13.69;99488.63;5036887;28;20098;-82
2023/05/02 07:49:38;;;;;;;7.03;1.15;;;;;;;36.15;12.88;99490.88;5037940;28;20431;-84
2023/05/02 07:52:04;;;;;;;2.60;1.17;;;;;;;36.37;12.88;99487.13;5035758;28;20029;-77
2023/05/02 07:54:29;;;;;;;4.38;1.13;;;;;;;36.39;12.37;99480.34;5050754;28;20069;-85
2023/05/02 07:57:00;;;;;;;4.57;1.05;;;;;;;36.51;12.51;99481.97;5021712;28;20037;-84
2023/05/02 07:59:26;;;;;;;5.78;1.13;;;;;;;36.63;12.53;99492.63;5038164;28;20175;-83
2023/05/02 08:01:51;;;;;;;2.47;0.98;;;;;;;36.65;12.34;99488.50;5053707;28;20037;-85
2023/05/02 08:04:17;;;;;;;4.05;1.40;;;;;;;36.65;11.94;99499.38;5006092;28;20041;-87
2023/05/02 08:06:43;;;;;;;3.80;1.10;;;;;;;36.68;12.01;99492.59;5019698;28;20049;-85
2023/05/02 08:09:09;;;;;;;4.03;1.10;;;;;;;36.68;11.89;99493.41;5003508;28;20041;-85
2023/05/02 08:11:34;;;;;;;5.07;1.17;;;;;;;36.59;11.97;99489.59;5018844;28;20514;-87
2023/05/02 08:14:00;;;;;;;5.00;1.08;;;;;;;36.53;11.98;99487.97;5019973;28;20060;-83
2023/05/02 08:16:26;;;;;;;2.85;1.10;;;;;;;36.44;12.15;99481.44;5019224;28;20033;-84
2023/05/02 08:18:51;;;;;;;3.50;1.02;;;;;;;36.39;11.81;99484.97;5019322;28;20403;-83
2023/05/02 08:21:16;;;;;;;4.53;1.05;;;;;;;36.37;12.19;99489.84;5037459;28;20052;-83
2023/05/02 08:23:42;;;;;;;4.00;0.85;;;;;;;36.22;12.39;99491.41;5024539;28;20040;-81
2023/05/02 08:26:08;;;;;;;3.30;1.08;;;;;;;36.06;12.59;99484.31;5056644;28;20037;-83
2023/05/02 08:28:34;;;;;;;2.95;1.17;;;;;;;35.93;12.70;99484.81;5024802;28;20092;-86
2023/05/02 08:30:59;;;;;;;5.50;1.10;;;;;;;35.77;12.84;99479.34;5059547;28;20476;-84
2023/05/02 08:33:25;;;;;;;2.55;0.85;;;;;;;35.64;12.86;99477.88;5042016;28;20037;-84
2023/05/02 08:35:50;;;;;;;4.38;1.10;;;;;;;35.49;12.75;99486.78;5031330;28;20032;-89
2023/05/02 08:38:16;;;;;;;2.55;1.10;;;;;;;35.38;12.56;99485.09;5042880;28;20040;-88
2023/05/02 08:40:41;;;;;;;4.25;1.20;;;;;;;35.26;12.68;99479.03;5030126;28;20044;-85
2023/05/02 08:43:07;;;;;;;3.50;1.10;;;;;;;35.11;12.83;99472.41;5061414;28;20048;-84
2023/05/02 08:45:39;;;;;;;2.03;0.95;;;;;;;35.01;13.29;99477.75;5039453;28;20111;-83
2023/05/02 08:48:12;;;;;;;4.15;1.30;;;;;;;34.98;13.23;99483.69;5024898;28;20037;-85
2023/05/02 08:50:38;;;;;;;5.18;1.00;;;;;;;34.84;13.31;99487.94;5042146;28;20049;-84
2023/05/02 08:53:04;;;;;;;4.38;1.00;;;;;;;34.64;13.38;99469.59;5029596;28;20083;-84
2023/05/02 08:55:30;;;;;;;4.13;1.10;;;;;;;34.57;14.05;99488.75;5041877;28;20484;-83
2023/05/02 08:57:56;;;;;;;5.80;1.00;;;;;;;34.46;13.85;99498.72;5024095;28;20040;-85
2023/05/02 09:00:22;;;;;;;1.73;0.80;;;;;;;34.30;13.84;99478.78;5039914;28;20033;-82
2023/05/02 09:02:51;;;;;;;4.10;0.93;;;;;;;34.27;14.20;99483.84;5021751;28;20071;-85
2023/05/02 09:05:19;;;;;;;3.78;1.10;;;;;;;34.19;14.44;99468.84;5038812;28;20473;-85
2023/05/02 09:07:46;;;;;;;5.68;1.00;;;;;;;34.11;14.08;99477.44;5021840;28;20040;-83
2023/05/02 09:10:13;;;;;;;3.50;1.13;;;;;;;33.98;14.24;99476.75;5038974;28;20044;-84
2023/05/02 09:12:38;;;;;;;2.92;1.00;;;;;;;33.81;14.34;99470.59;5024516;28;20064;-84
2023/05/02 09:15:15;;;;;;;2.55;1.15;;;;;;;33.67;14.23;99467.44;5042169;28;20067;-86
2023/05/02 09:18:04;;;;;;;2.10;1.08;;;;;;;33.43;14.27;99464.13;5040597;28;20037;-85
2023/05/02 09:20:29;;;;;;;4.55;1.27;;;;;;;33.28;14.65;99462.03;4984471;28;20034;-83
2023/05/02 09:22:55;;;;;;;3.25;1.20;;;;;;;33.09;14.80;99462.25;4964002;28;20061;-84
2023/05/02 09:25:20;;;;;;;3.20;1.20;;;;;;;32.89;14.67;99449.25;4977235;28;20042;-84
2023/05/02 09:27:54;;;;;;;2.22;0.80;;;;;;;32.75;15.09;99440.66;4964038;28;20074;-85
2023/05/02 09:30:24;;;;;;;5.50;1.30;;;;;;;32.63;15.14;99448.84;4962878;28;20034;-83
2023/05/02 09:32:50;;;;;;;2.97;1.10;;;;;;;32.52;14.82;99438.91;4980958;28;20053;-82
2023/05/02 09:35:22;;;;;;;4.05;1.20;;;;;;;32.42;15.20;99444.94;4946368;28;20038;-83
2023/05/02 09:37:54;;;;;;;5.32;1.10;;;;;;;32.24;15.48;99437.06;4996950;28;20100;-85
2023/05/02 09:40:20;;;;;;;3.15;1.05;;;;;;;32.07;15.63;99435.13;4965708;28;20043;-87
2023/05/02 09:42:46;;;;;;;6.45;1.42;;;;;;;31.91;15.51;99434.00;4967727;28;20106;-84
2023/05/02 09:45:27;;;;;;;2.35;1.10;;;;;;;31.71;15.83;99441.69;4985274;28;20544;-89
2023/05/02 09:47:53;;;;;;;7.57;1.20;;;;;;;31.47;15.66;99425.53;5001932;28;20039;-83
2023/05/02 09:50:34;;;;;;;3.78;1.33;;;;;;;31.34;15.96;99431.16;4966819;28;20094;-85
2023/05/02 09:53:04;;;;;;;3.63;1.00;;;;;;;31.12;15.54;99429.09;5039733;28;20029;-83
2023/05/02 09:55:30;;;;;;;2.28;1.20;;;;;;;30.92;16.01;99420.50;5004648;28;20102;-83
2023/05/02 09:57:55;;;;;;;4.85;1.00;;;;;;;30.76;16.19;99419.28;5005452;28;20045;-82
2023/05/02 10:00:21;;;;;;;2.25;1.00;;;;;;;30.62;16.50;99424.91;5039493;28;20044;-86
2023/05/02 10:02:49;;;;;;;3.67;1.20;;;;;;;30.51;16.60;99431.09;5007199;28;20045;-84
2023/05/02 10:05:16;;;;;;;4.47;1.45;;;;;;;30.40;16.58;99435.41;5008329;28;20397;-85
2023/05/02 10:07:42;;;;;;;4.60;0.93;;;;;;;30.28;16.54;99427.28;5039601;28;20349;-86
2023/05/02 10:10:13;;;;;;;2.65;1.02;;;;;;;30.14;17.08;99428.47;5023729;28;20037;-85
2023/05/02 10:12:38;;;;;;;3.47;1.20;;;;;;;29.98;17.26;99416.47;5023742;28;20044;-83
2023/05/02 10:15:04;;;;;;;4.47;1.25;;;;;;;29.84;17.08;99423.94;5040636;28;20048;-85
2023/05/02 10:17:30;;;;;;;2.95;1.00;;;;;;;29.69;17.45;99423.47;5005950;28;20052;-82
2023/05/02 10:20:00;;;;;;;2.80;1.27;;;;;;;29.54;17.33;99413.91;5037965;28;20029;-87
2023/05/02 10:22:25;;;;;;;7.85;1.10;;;;;;;29.38;17.81;99415.34;5021767;28;20043;-84
2023/05/02 10:24:52;;;;;;;5.78;1.00;;;;;;;29.29;17.99;99407.75;5036302;28;20037;-82
2023/05/02 10:27:17;;;;;;;3.53;1.15;;;;;;;29.17;18.10;99413.03;5003915;28;20040;-83
2023/05/02 10:29:43;;;;;;;4.00;1.00;;;;;;;29.07;18.41;99401.97;5037744;28;20408;-83
2023/05/02 10:32:08;;;;;;;3.53;1.00;;;;;;;28.97;18.88;99403.31;5056465;28;20094;-83
2023/05/02 10:34:34;;;;;;;4.78;1.10;;;;;;;28.86;18.13;99399.47;5025749;28;20488;-82
2023/05/02 10:37:01;;;;;;;3.38;1.30;;;;;;;28.77;18.53;99402.66;5022162;28;20049;-82
2023/05/02 10:39:26;;;;;;;3.13;1.08;;;;;;;28.64;18.74;99401.72;5043914;28;20040;-84
2023/05/02 10:41:53;;;;;;;3.28;1.10;;;;;;;28.53;18.88;99399.72;5039204;28;20032;-84
2023/05/02 10:44:34;;;;;;;4.13;1.20;;;;;;;28.41;19.05;99404.16;5020821;28;20051;-85
2023/05/02 10:47:00;;;;;;;5.15;1.23;;;;;;;28.33;19.07;99402.53;5037397;28;20064;-84
2023/05/02 10:49:26;;;;;;;5.97;1.20;;;;;;;28.18;19.17;99402.84;5040725;28;20037;-86
2023/05/02 10:51:51;;;;;;;6.43;1.10;;;;;;;28.06;19.51;99400.03;5038392;28;20029;-85
2023/05/02 10:54:23;;;;;;;7.90;1.10;;;;;;;27.86;19.61;99386.66;5038282;28;20052;-83
2023/05/02 10:57:02;;;;;;;3.17;1.45;;;;;;;27.75;19.38;99400.75;5022978;28;20037;-84
2023/05/02 10:59:29;;;;;;;3.67;1.00;;;;;;;27.56;19.62;99391.75;5038412;28;20044;-83
2023/05/02 11:01:55;;;;;;;6.07;1.10;;;;;;;27.43;19.76;99389.94;5010752;28;20037;-88
2023/05/02 11:04:21;;;;;;;3.38;1.15;;;;;;;27.27;19.60;99391.19;5038878;28;20091;-84
2023/05/02 11:06:55;;;;;;;3.22;1.08;;;;;;;27.15;20.01;99390.19;5022292;28;20033;-85
2023/05/02 11:09:21;;;;;;;2.75;1.00;;;;;;;27.01;20.19;99386.72;5043266;28;20033;-83
2023/05/02 11:11:48;;;;;;;6.20;1.10;;;;;;;26.90;20.34;99383.66;5057462;28;20044;-82
2023/05/02 11:14:31;;;;;;;4.07;1.10;;;;;;;26.81;20.58;99376.84;5036334;28;20397;-82
2023/05/02 11:16:59;;;;;;;2.78;0.90;;;;;;;26.78;20.87;99371.91;5053353;28;20083;-83
2023/05/02 11:19:26;;;;;;;4.35;1.30;;;;;;;26.71;21.15;99363.88;5054233;28;20037;-84
2023/05/02 11:21:52;;;;;;;3.92;1.00;;;;;;;26.68;21.27;99368.84;5005345;28;20048;-83
2023/05/02 11:24:39;;;;;;;7.50;1.27;;;;;;;26.58;21.26;99369.19;5020587;28;20037;-86
2023/05/02 11:27:29;;;;;;;3.80;1.45;;;;;;;26.45;21.46;99383.41;5054150;28;20495;-84
2023/05/02 11:30:14;;;;;;;2.88;1.13;;;;;;;26.35;21.22;99367.75;5036022;28;20067;-84
2023/05/02 11:32:43;;;;;;;7.07;1.40;;;;;;;26.28;21.45;99369.63;5004512;28;20416;-85
2023/05/02 11:35:22;;;;;;;4.95;1.17;;;;;;;26.20;21.41;99372.47;5054927;28;20136;-86
2023/05/02 11:38:02;;;;;;;5.10;1.00;;;;;;;26.11;21.37;99371.84;5022324;28;20397;-84
2023/05/02 11:40:28;;;;;;;6.95;1.25;;;;;;;26.01;21.47;99355.34;5019849;28;20033;-83